sensor_id;sensor_type;location;lat;lon;timestamp;pressure;altitude;pressure_sealevel;temperature;humidity
49583;BME280;36329;48.816;44.624;2023-02-01T00:00:18;100815;;;-3;73.4
49583;BME280;36329;48.816;44.624;2023-02-01T00:03:20;100817;;;-2.8;72.7
49583;BME280;36329;48.816;44.624;2023-02-01T00:06:22;100817;;;-3.1;72.7
49583;BME280;36329;48.816;44.624;2023-02-01T00:09:25;100821;;;-3;73.5
49583;BME280;36329;48.816;44.624;2023-02-01T00:12:27;100815;;;-2.8;72.7
49583;BME280;36329;48.816;44.624;2023-02-01T00:15:29;100816;;;-2.8;71.7
49583;BME280;36329;48.816;44.624;2023-02-01T00:18:36;100810;;;-2.6;71.3
49583;BME280;36329;48.816;44.624;2023-02-01T00:21:43;100802;;;-2.6;71.4
49583;BME280;36329;48.816;44.624;2023-02-01T00:24:46;100802;;;-2.8;71.3
49583;BME280;36329;48.816;44.624;2023-02-01T00:27:48;100800;;;-3.1;72.8
49583;BME280;36329;48.816;44.624;2023-02-01T00:30:55;100800;;;-3.6;75.1
49583;BME280;36329;48.816;44.624;2023-02-01T00:33:58;100793;;;-3.6;76.5
49583;BME280;36329;48.816;44.624;2023-02-01T00:37:00;100792;;;-3.5;75.8
49583;BME280;36329;48.816;44.624;2023-02-01T00:40:02;100785;;;-3.3;75.1
49583;BME280;36329;48.816;44.624;2023-02-01T00:43:05;100778;;;-3.4;75.4
49583;BME280;36329;48.816;44.624;2023-02-01T00:46:07;100782;;;-3.4;75.5
49583;BME280;36329;48.816;44.624;2023-02-01T00:49:09;100778;;;-3.6;75.3
49583;BME280;36329;48.816;44.624;2023-02-01T00:52:11;100785;;;-3.2;74.2
49583;BME280;36329;48.816;44.624;2023-02-01T00:55:13;100791;;;-3.2;74
49583;BME280;36329;48.816;44.624;2023-02-01T00:58:15;100788;;;-3.3;74.7
49583;BME280;36329;48.816;44.624;2023-02-01T01:01:18;100794;;;-3.4;74.7
49583;BME280;36329;48.816;44.624;2023-02-01T01:04:20;100790;;;-3.3;74.7
49583;BME280;36329;48.816;44.624;2023-02-01T01:07:22;100786;;;-3.3;74.6
49583;BME280;36329;48.816;44.624;2023-02-01T01:10:24;100788;;;-3.3;74.4
49583;BME280;36329;48.816;44.624;2023-02-01T01:13:26;100791;;;-3.6;75.4
49583;BME280;36329;48.816;44.624;2023-02-01T01:16:30;100785;;;-3.9;77.1
49583;BME280;36329;48.816;44.624;2023-02-01T01:19:32;100784;;;-3.6;76.5
49583;BME280;36329;48.816;44.624;2023-02-01T01:22:34;100790;;;-3.5;75.6
49583;BME280;36329;48.816;44.624;2023-02-01T01:25:37;100788;;;-3.6;76.2
49583;BME280;36329;48.816;44.624;2023-02-01T01:28:40;100788;;;-3.8;76.3
49583;BME280;36329;48.816;44.624;2023-02-01T01:31:42;100786;;;-3.7;77
49583;BME280;36329;48.816;44.624;2023-02-01T01:34:44;100784;;;-3.4;76.1
49583;BME280;36329;48.816;44.624;2023-02-01T01:37:46;100783;;;-3.2;74.4
49583;BME280;36329;48.816;44.624;2023-02-01T01:40:48;100788;;;-3.1;74.2
49583;BME280;36329;48.816;44.624;2023-02-01T01:43:52;100783;;;-3;73.6
49583;BME280;36329;48.816;44.624;2023-02-01T01:46:55;100784;;;-2.9;72.6
49583;BME280;36329;48.816;44.624;2023-02-01T01:49:56;100785;;;-3;73
49583;BME280;36329;48.816;44.624;2023-02-01T01:53:01;100780;;;-3.1;72.8
49583;BME280;36329;48.816;44.624;2023-02-01T01:56:05;100782;;;-3.5;74.6
49583;BME280;36329;48.816;44.624;2023-02-01T01:59:12;100785;;;-3.5;75.5
49583;BME280;36329;48.816;44.624;2023-02-01T02:02:15;100782;;;-3.4;74.7
49583;BME280;36329;48.816;44.624;2023-02-01T02:05:18;100779;;;-3.6;75
49583;BME280;36329;48.816;44.624;2023-02-01T02:08:21;100773;;;-3.4;75.6
49583;BME280;36329;48.816;44.624;2023-02-01T02:11:23;100777;;;-3.2;74.8
49583;BME280;36329;48.816;44.624;2023-02-01T02:14:27;100782;;;-3;73.4
49583;BME280;36329;48.816;44.624;2023-02-01T02:17:52;100774;;;-3;72.9
49583;BME280;36329;48.816;44.624;2023-02-01T02:21:07;100775;;;-3.2;73.6
49583;BME280;36329;48.816;44.624;2023-02-01T02:24:27;100772;;;-3.2;74.1
49583;BME280;36329;48.816;44.624;2023-02-01T02:27:43;100770;;;-3.1;73.8
49583;BME280;36329;48.816;44.624;2023-02-01T02:31:10;100770;;;-3;73.7
49583;BME280;36329;48.816;44.624;2023-02-01T02:34:26;100767;;;-2.8;73
49583;BME280;36329;48.816;44.624;2023-02-01T02:37:38;100771;;;-2.9;72.8
49583;BME280;36329;48.816;44.624;2023-02-01T02:40:49;100767;;;-3.2;73.3
49583;BME280;36329;48.816;44.624;2023-02-01T02:43:57;100770;;;-3.4;75.2
49583;BME280;36329;48.816;44.624;2023-02-01T02:47:05;100768;;;-3;73.7
49583;BME280;36329;48.816;44.624;2023-02-01T02:50:17;100773;;;-2.8;72.6
49583;BME280;36329;48.816;44.624;2023-02-01T02:53:28;100774;;;-2.9;72.2
49583;BME280;36329;48.816;44.624;2023-02-01T02:56:34;100781;;;-3.3;74
49583;BME280;36329;48.816;44.624;2023-02-01T02:59:38;100780;;;-3;73.8
49583;BME280;36329;48.816;44.624;2023-02-01T03:02:42;100778;;;-3.3;74.4
49583;BME280;36329;48.816;44.624;2023-02-01T03:05:46;100779;;;-3.2;74.6
49583;BME280;36329;48.816;44.624;2023-02-01T03:08:49;100780;;;-2.9;73.8
49583;BME280;36329;48.816;44.624;2023-02-01T03:11:55;100781;;;-2.7;72.8
49583;BME280;36329;48.816;44.624;2023-02-01T03:15:10;100789;;;-2.5;71.9
49583;BME280;36329;48.816;44.624;2023-02-01T03:18:20;100791;;;-2.5;72.1
49583;BME280;36329;48.816;44.624;2023-02-01T03:21:31;100786;;;-2.4;71.8
49583;BME280;36329;48.816;44.624;2023-02-01T03:24:39;100790;;;-2.5;72.1
49583;BME280;36329;48.816;44.624;2023-02-01T03:27:51;100788;;;-2.6;72.3
49583;BME280;36329;48.816;44.624;2023-02-01T03:31:01;100789;;;-2.3;71.9
49583;BME280;36329;48.816;44.624;2023-02-01T03:34:04;100795;;;-2.3;71.1
49583;BME280;36329;48.816;44.624;2023-02-01T03:37:14;100796;;;-2.5;71.3
49583;BME280;36329;48.816;44.624;2023-02-01T03:40:20;100789;;;-2.8;73.2
49583;BME280;36329;48.816;44.624;2023-02-01T03:43:23;100793;;;-2.9;73.8
49583;BME280;36329;48.816;44.624;2023-02-01T03:46:30;100792;;;-2.8;74
49583;BME280;36329;48.816;44.624;2023-02-01T03:49:36;100800;;;-2.8;73.6
49583;BME280;36329;48.816;44.624;2023-02-01T03:52:42;100803;;;-2.8;73.7
49583;BME280;36329;48.816;44.624;2023-02-01T03:55:52;100797;;;-2.8;74
49583;BME280;36329;48.816;44.624;2023-02-01T03:59:00;100808;;;-2.7;73.6
49583;BME280;36329;48.816;44.624;2023-02-01T04:02:02;100800;;;-2.8;73.7
49583;BME280;36329;48.816;44.624;2023-02-01T04:05:05;100806;;;-3.1;75.6
49583;BME280;36329;48.816;44.624;2023-02-01T04:08:12;100811;;;-2.8;75.5
49583;BME280;36329;48.816;44.624;2023-02-01T04:11:20;100813;;;-2.5;73.8
49583;BME280;36329;48.816;44.624;2023-02-01T04:14:28;100816;;;-2.4;73.2
49583;BME280;36329;48.816;44.624;2023-02-01T04:17:36;100809;;;-2.6;73.4
49583;BME280;36329;48.816;44.624;2023-02-01T04:20:39;100814;;;-2.5;73.4
49583;BME280;36329;48.816;44.624;2023-02-01T04:23:41;100810;;;-2.6;73.9
49583;BME280;36329;48.816;44.624;2023-02-01T04:26:49;100815;;;-2.7;74.1
49583;BME280;36329;48.816;44.624;2023-02-01T04:29:53;100816;;;-3;75.2
49583;BME280;36329;48.816;44.624;2023-02-01T04:32:54;100813;;;-3.1;76.7
49583;BME280;36329;48.816;44.624;2023-02-01T04:36:02;100822;;;-3.5;78.2
49583;BME280;36329;48.816;44.624;2023-02-01T04:39:05;100830;;;-3.7;80.1
49583;BME280;36329;48.816;44.624;2023-02-01T04:42:12;100827;;;-3.5;79.6
49583;BME280;36329;48.816;44.624;2023-02-01T04:45:15;100828;;;-3.4;79.2
49583;BME280;36329;48.816;44.624;2023-02-01T04:48:18;100829;;;-3.4;78.9
49583;BME280;36329;48.816;44.624;2023-02-01T04:51:21;100828;;;-3.5;79.6
49583;BME280;36329;48.816;44.624;2023-02-01T04:54:30;100836;;;-3.4;79.7
49583;BME280;36329;48.816;44.624;2023-02-01T04:57:37;100839;;;-2.9;77.8
49583;BME280;36329;48.816;44.624;2023-02-01T05:00:40;100839;;;-2.8;75.8
49583;BME280;36329;48.816;44.624;2023-02-01T05:03:48;100838;;;-2.8;76
49583;BME280;36329;48.816;44.624;2023-02-01T05:06:52;100844;;;-2.8;75.4
49583;BME280;36329;48.816;44.624;2023-02-01T05:09:55;100842;;;-3;76.4
49583;BME280;36329;48.816;44.624;2023-02-01T05:12:57;100842;;;-3;76.9
49583;BME280;36329;48.816;44.624;2023-02-01T05:16:05;100844;;;-2.8;76.5
49583;BME280;36329;48.816;44.624;2023-02-01T05:19:08;100843;;;-2.8;76.5
49583;BME280;36329;48.816;44.624;2023-02-01T05:22:15;100851;;;-2.5;75.2
49583;BME280;36329;48.816;44.624;2023-02-01T05:25:18;100862;;;-2.5;75
49583;BME280;36329;48.816;44.624;2023-02-01T05:28:20;100866;;;-2.1;73.8
49583;BME280;36329;48.816;44.624;2023-02-01T05:31:22;100871;;;-2;72.5
49583;BME280;36329;48.816;44.624;2023-02-01T05:34:25;100874;;;-1.8;71.8
49583;BME280;36329;48.816;44.624;2023-02-01T05:37:27;100872;;;-1.9;72.7
49583;BME280;36329;48.816;44.624;2023-02-01T05:40:36;100872;;;-1.7;71.4
49583;BME280;36329;48.816;44.624;2023-02-01T05:43:39;100873;;;-1.4;70.6
49583;BME280;36329;48.816;44.624;2023-02-01T05:46:42;100880;;;-1.3;69.8
49583;BME280;36329;48.816;44.624;2023-02-01T05:49:45;100884;;;-1.2;69.3
49583;BME280;36329;48.816;44.624;2023-02-01T05:52:49;100885;;;-1.3;69.3
49583;BME280;36329;48.816;44.624;2023-02-01T05:55:52;100893;;;-1.1;69.2
49583;BME280;36329;48.816;44.624;2023-02-01T05:58:55;100898;;;-1.5;70.3
49583;BME280;36329;48.816;44.624;2023-02-01T06:02:03;100899;;;-1.4;71.1
49583;BME280;36329;48.816;44.624;2023-02-01T06:05:12;100902;;;-1.4;70.2
49583;BME280;36329;48.816;44.624;2023-02-01T06:08:15;100909;;;-1.1;69.6
49583;BME280;36329;48.816;44.624;2023-02-01T06:11:17;100912;;;-1.3;70.1
49583;BME280;36329;48.816;44.624;2023-02-01T06:14:25;100916;;;-1.3;70
49583;BME280;36329;48.816;44.624;2023-02-01T06:17:27;100918;;;-1.2;70.1
49583;BME280;36329;48.816;44.624;2023-02-01T06:20:39;100915;;;-1.3;71
49583;BME280;36329;48.816;44.624;2023-02-01T06:23:44;100865;;;-1.4;70.5
49583;BME280;36329;48.816;44.624;2023-02-01T06:26:47;100916;;;-1.3;70.5
49583;BME280;36329;48.816;44.624;2023-02-01T06:29:49;100911;;;-1.1;69.9
49583;BME280;36329;48.816;44.624;2023-02-01T06:33:07;100913;;;-1.2;69.9
49583;BME280;36329;48.816;44.624;2023-02-01T06:36:11;100912;;;-1.6;72.6
49583;BME280;36329;48.816;44.624;2023-02-01T06:39:13;100913;;;-1.9;72.6
49583;BME280;36329;48.816;44.624;2023-02-01T06:42:15;100916;;;-1.6;71.5
49583;BME280;36329;48.816;44.624;2023-02-01T06:45:17;100914;;;-1.7;71.8
49583;BME280;36329;48.816;44.624;2023-02-01T06:48:19;100920;;;-1.7;72.1
49583;BME280;36329;48.816;44.624;2023-02-01T06:51:28;100915;;;-1.6;72.3
49583;BME280;36329;48.816;44.624;2023-02-01T06:54:32;100913;;;-1.4;70.6
49583;BME280;36329;48.816;44.624;2023-02-01T06:57:40;100908;;;-2;73
49583;BME280;36329;48.816;44.624;2023-02-01T07:00:43;100911;;;-2.1;74
49583;BME280;36329;48.816;44.624;2023-02-01T07:03:47;100907;;;-1.6;72.5
49583;BME280;36329;48.816;44.624;2023-02-01T07:06:55;100902;;;-1.9;72.7
49583;BME280;36329;48.816;44.624;2023-02-01T07:10:05;100904;;;-1.8;72.9
49583;BME280;36329;48.816;44.624;2023-02-01T07:13:15;100909;;;-1.8;72.6
49583;BME280;36329;48.816;44.624;2023-02-01T07:16:19;100915;;;-1.7;72.5
49583;BME280;36329;48.816;44.624;2023-02-01T07:19:32;100916;;;-1.4;71.6
49583;BME280;36329;48.816;44.624;2023-02-01T07:22:35;100909;;;-1.3;71.3
49583;BME280;36329;48.816;44.624;2023-02-01T07:25:41;100913;;;-1.4;71.3
49583;BME280;36329;48.816;44.624;2023-02-01T07:28:43;100916;;;-1.1;70.8
49583;BME280;36329;48.816;44.624;2023-02-01T07:31:45;100911;;;-1.2;70.8
49583;BME280;36329;48.816;44.624;2023-02-01T07:34:48;100915;;;-1.4;72
49583;BME280;36329;48.816;44.624;2023-02-01T07:37:57;100913;;;-1.1;71.5
49583;BME280;36329;48.816;44.624;2023-02-01T07:41:06;100915;;;-1.2;71
49583;BME280;36329;48.816;44.624;2023-02-01T07:44:16;100918;;;-1.2;72
49583;BME280;36329;48.816;44.624;2023-02-01T07:47:18;100914;;;-1.1;71.8
49583;BME280;36329;48.816;44.624;2023-02-01T07:50:27;100918;;;-0.8;70.3
49583;BME280;36329;48.816;44.624;2023-02-01T07:53:47;100922;;;-0.6;69.6
49583;BME280;36329;48.816;44.624;2023-02-01T07:56:51;100920;;;-0.2;68.6
49583;BME280;36329;48.816;44.624;2023-02-01T07:59:57;100910;;;-0.3;67.5
49583;BME280;36329;48.816;44.624;2023-02-01T08:03:05;100908;;;-0.5;69.2
49583;BME280;36329;48.816;44.624;2023-02-01T08:06:12;100915;;;-0.1;67.7
49583;BME280;36329;48.816;44.624;2023-02-01T08:09:15;100911;;;0;67.9
49583;BME280;36329;48.816;44.624;2023-02-01T08:12:20;100912;;;0.3;67.2
49583;BME280;36329;48.816;44.624;2023-02-01T08:15:22;100908;;;0.5;67
49583;BME280;36329;48.816;44.624;2023-02-01T08:18:30;100905;;;0.3;66.9
49583;BME280;36329;48.816;44.624;2023-02-01T08:21:43;100903;;;-0.2;67.9
49583;BME280;36329;48.816;44.624;2023-02-01T08:24:49;100901;;;-0.3;69.3
49583;BME280;36329;48.816;44.624;2023-02-01T08:27:57;100898;;;0.4;67.4
49583;BME280;36329;48.816;44.624;2023-02-01T08:31:04;100887;;;0.7;69
49583;BME280;36329;48.816;44.624;2023-02-01T08:34:13;100886;;;1;65.8
49583;BME280;36329;48.816;44.624;2023-02-01T08:37:18;100885;;;1.3;65
49583;BME280;36329;48.816;44.624;2023-02-01T08:40:25;100889;;;1.2;63.6
49583;BME280;36329;48.816;44.624;2023-02-01T08:43:30;100882;;;1.2;64.8
49583;BME280;36329;48.816;44.624;2023-02-01T08:46:38;100879;;;1.4;63.3
49583;BME280;36329;48.816;44.624;2023-02-01T08:49:40;100879;;;1;64.5
49583;BME280;36329;48.816;44.624;2023-02-01T08:52:42;100876;;;1.5;63.6
49583;BME280;36329;48.816;44.624;2023-02-01T08:55:53;100876;;;1.7;62.4
49583;BME280;36329;48.816;44.624;2023-02-01T08:59:03;100869;;;1.6;63.7
49583;BME280;36329;48.816;44.624;2023-02-01T09:02:08;100873;;;1.6;62.8
49583;BME280;36329;48.816;44.624;2023-02-01T09:05:18;100868;;;1.5;62.9
49583;BME280;36329;48.816;44.624;2023-02-01T09:08:20;100872;;;1.6;62.2
49583;BME280;36329;48.816;44.624;2023-02-01T09:11:29;100863;;;1.3;63.8
49583;BME280;36329;48.816;44.624;2023-02-01T09:14:44;100858;;;1;64.3
49583;BME280;36329;48.816;44.624;2023-02-01T09:17:46;100858;;;1.4;63.3
49583;BME280;36329;48.816;44.624;2023-02-01T09:20:50;100859;;;1.6;61.7
49583;BME280;36329;48.816;44.624;2023-02-01T09:23:58;100852;;;1.7;62
49583;BME280;36329;48.816;44.624;2023-02-01T09:27:07;100844;;;1.2;63.7
49583;BME280;36329;48.816;44.624;2023-02-01T09:30:12;100850;;;0.9;64.4
49583;BME280;36329;48.816;44.624;2023-02-01T09:33:15;100840;;;0.8;65
49583;BME280;36329;48.816;44.624;2023-02-01T09:36:28;100838;;;1;65.1
49583;BME280;36329;48.816;44.624;2023-02-01T09:39:36;100833;;;1.4;63.6
49583;BME280;36329;48.816;44.624;2023-02-01T09:42:53;100837;;;1.6;62.7
49583;BME280;36329;48.816;44.624;2023-02-01T09:46:06;100823;;;1.9;61.5
49583;BME280;36329;48.816;44.624;2023-02-01T09:49:17;100828;;;2;61.2
49583;BME280;36329;48.816;44.624;2023-02-01T09:52:26;100821;;;2.2;61
49583;BME280;36329;48.816;44.624;2023-02-01T09:55:35;100820;;;2.7;58.9
49583;BME280;36329;48.816;44.624;2023-02-01T09:58:47;100816;;;2.7;58.5
49583;BME280;36329;48.816;44.624;2023-02-01T10:01:53;100813;;;2.7;58.6
49583;BME280;36329;48.816;44.624;2023-02-01T10:04:58;100815;;;2.4;59.4
49583;BME280;36329;48.816;44.624;2023-02-01T10:08:19;100809;;;2.4;59.7
49583;BME280;36329;48.816;44.624;2023-02-01T10:11:41;100810;;;2;61.4
49583;BME280;36329;48.816;44.624;2023-02-01T10:15:14;100813;;;1.9;61.9
49583;BME280;36329;48.816;44.624;2023-02-01T10:18:36;100808;;;1.2;64.1
49583;BME280;36329;48.816;44.624;2023-02-01T10:21:54;100810;;;1.4;64.6
49583;BME280;36329;48.816;44.624;2023-02-01T10:25:14;100805;;;1.4;64.6
49583;BME280;36329;48.816;44.624;2023-02-01T10:28:25;100809;;;1.6;64.5
49583;BME280;36329;48.816;44.624;2023-02-01T10:31:32;100803;;;1.6;64.2
49583;BME280;36329;48.816;44.624;2023-02-01T10:34:52;100802;;;1.7;64
49583;BME280;36329;48.816;44.624;2023-02-01T10:38:00;100810;;;1.9;63.1
49583;BME280;36329;48.816;44.624;2023-02-01T10:41:16;100801;;;1.8;63.9
49583;BME280;36329;48.816;44.624;2023-02-01T10:44:30;100807;;;1.7;64.1
49583;BME280;36329;48.816;44.624;2023-02-01T10:47:35;100803;;;1.3;65.6
49583;BME280;36329;48.816;44.624;2023-02-01T10:50:44;100801;;;1.3;66.3
49583;BME280;36329;48.816;44.624;2023-02-01T10:54:00;100800;;;1.4;66
49583;BME280;36329;48.816;44.624;2023-02-01T10:57:23;100796;;;1.4;66.8
49583;BME280;36329;48.816;44.624;2023-02-01T11:00:39;100798;;;1.3;67
49583;BME280;36329;48.816;44.624;2023-02-01T11:03:57;100815;;;1.2;66.2
49583;BME280;36329;48.816;44.624;2023-02-01T11:07:17;100811;;;1;67.5
49583;BME280;36329;48.816;44.624;2023-02-01T11:10:36;100811;;;1.3;67
49583;BME280;36329;48.816;44.624;2023-02-01T11:13:54;100807;;;1.4;66.3
49583;BME280;36329;48.816;44.624;2023-02-01T11:17:26;100803;;;1.6;65.5
49583;BME280;36329;48.816;44.624;2023-02-01T11:20:50;100810;;;1.6;65.4
49583;BME280;36329;48.816;44.624;2023-02-01T11:23:54;100810;;;1.6;65.3
49583;BME280;36329;48.816;44.624;2023-02-01T11:26:59;100815;;;1.5;65.9
49583;BME280;36329;48.816;44.624;2023-02-01T11:30:15;100811;;;1.8;65.1
49583;BME280;36329;48.816;44.624;2023-02-01T11:33:32;100807;;;2.2;63.6
49583;BME280;36329;48.816;44.624;2023-02-01T11:36:42;100792;;;2.2;63.3
49583;BME280;36329;48.816;44.624;2023-02-01T11:39:54;100799;;;2.2;63.3
49583;BME280;36329;48.816;44.624;2023-02-01T11:43:11;100798;;;2.4;63.2
49583;BME280;36329;48.816;44.624;2023-02-01T11:46:22;100797;;;2.5;62.6
49583;BME280;36329;48.816;44.624;2023-02-01T11:49:33;100796;;;2.9;61
49583;BME280;36329;48.816;44.624;2023-02-01T11:53:06;100799;;;2.7;61.5
49583;BME280;36329;48.816;44.624;2023-02-01T11:56:29;100802;;;2.8;61.4
49583;BME280;36329;48.816;44.624;2023-02-01T11:59:57;100803;;;2.4;62.3
49583;BME280;36329;48.816;44.624;2023-02-01T12:06:45;100796;;;2.7;61.9
49583;BME280;36329;48.816;44.624;2023-02-01T12:10:09;100800;;;2.7;61.3
49583;BME280;36329;48.816;44.624;2023-02-01T12:13:38;100799;;;2.5;62.5
49583;BME280;36329;48.816;44.624;2023-02-01T12:17:01;100791;;;2.7;62
49583;BME280;36329;48.816;44.624;2023-02-01T12:20:36;100786;;;3;60.8
49583;BME280;36329;48.816;44.624;2023-02-01T12:27:34;100781;;;3;60.8
49583;BME280;36329;48.816;44.624;2023-02-01T12:31:07;100792;;;2.8;61.6
49583;BME280;36329;48.816;44.624;2023-02-01T12:34:39;100783;;;2.8;61.4
49583;BME280;36329;48.816;44.624;2023-02-01T12:38:03;100782;;;2.9;60.9
49583;BME280;36329;48.816;44.624;2023-02-01T12:41:33;100782;;;2.7;61.3
49583;BME280;36329;48.816;44.624;2023-02-01T12:44:52;100786;;;2.6;61.8
49583;BME280;36329;48.816;44.624;2023-02-01T12:48:15;100791;;;2.8;61.3
49583;BME280;36329;48.816;44.624;2023-02-01T12:51:29;100790;;;2.9;61
49583;BME280;36329;48.816;44.624;2023-02-01T12:54:45;100793;;;3.2;60.4
49583;BME280;36329;48.816;44.624;2023-02-01T12:58:11;100785;;;3.1;60.3
49583;BME280;36329;48.816;44.624;2023-02-01T13:01:28;100776;;;2.9;60.9
49583;BME280;36329;48.816;44.624;2023-02-01T13:04:38;100773;;;2.8;61.1
49583;BME280;36329;48.816;44.624;2023-02-01T13:07:51;100779;;;2.7;61.1
49583;BME280;36329;48.816;44.624;2023-02-01T13:11:00;100775;;;2.7;61.2
49583;BME280;36329;48.816;44.624;2023-02-01T13:14:28;100779;;;2.7;61.3
49583;BME280;36329;48.816;44.624;2023-02-01T13:17:38;100777;;;2.6;61.9
49583;BME280;36329;48.816;44.624;2023-02-01T13:20:52;100778;;;2.6;61.6
49583;BME280;36329;48.816;44.624;2023-02-01T13:23:59;100780;;;2.5;61.8
49583;BME280;36329;48.816;44.624;2023-02-01T13:27:16;100781;;;2.6;61.6
49583;BME280;36329;48.816;44.624;2023-02-01T13:30:24;100784;;;2.4;62.3
49583;BME280;36329;48.816;44.624;2023-02-01T13:33:52;100784;;;2.2;63.3
49583;BME280;36329;48.816;44.624;2023-02-01T13:37:23;100782;;;2.2;63.2
49583;BME280;36329;48.816;44.624;2023-02-01T13:40:55;100792;;;2;64
49583;BME280;36329;48.816;44.624;2023-02-01T13:44:15;100791;;;2.2;63.4
49583;BME280;36329;48.816;44.624;2023-02-01T13:47:38;100802;;;2.2;63.5
49583;BME280;36329;48.816;44.624;2023-02-01T13:50:52;100794;;;2.1;64
49583;BME280;36329;48.816;44.624;2023-02-01T13:53:57;100796;;;2.3;63
49583;BME280;36329;48.816;44.624;2023-02-01T13:57:14;100793;;;2.3;62.8
49583;BME280;36329;48.816;44.624;2023-02-01T14:00:50;100800;;;2.2;63.2
49583;BME280;36329;48.816;44.624;2023-02-01T14:11:46;100818;;;1.8;65.6
49583;BME280;36329;48.816;44.624;2023-02-01T14:15:20;100818;;;1.8;65.7
49583;BME280;36329;48.816;44.624;2023-02-01T14:18:56;100829;;;2.1;65.3
49583;BME280;36329;48.816;44.624;2023-02-01T14:25:44;100837;;;2.3;64.9
49583;BME280;36329;48.816;44.624;2023-02-01T14:29:01;100840;;;2.3;65
49583;BME280;36329;48.816;44.624;2023-02-01T14:32:13;100843;;;2.4;64.8
49583;BME280;36329;48.816;44.624;2023-02-01T14:35:26;100849;;;2.2;65.7
49583;BME280;36329;48.816;44.624;2023-02-01T14:38:53;100858;;;2.4;65.6
49583;BME280;36329;48.816;44.624;2023-02-01T14:42:19;100860;;;2;66.6
49583;BME280;36329;48.816;44.624;2023-02-01T14:45:50;100859;;;1.8;67.7
49583;BME280;36329;48.816;44.624;2023-02-01T14:49:06;100857;;;1.8;68
49583;BME280;36329;48.816;44.624;2023-02-01T14:52:20;100862;;;1.8;68.4
49583;BME280;36329;48.816;44.624;2023-02-01T14:55:37;100859;;;1.7;68
49583;BME280;36329;48.816;44.624;2023-02-01T14:58:57;100867;;;1.9;67.6
49583;BME280;36329;48.816;44.624;2023-02-01T15:02:18;100862;;;2.3;66.3
49583;BME280;36329;48.816;44.624;2023-02-01T15:05:41;100866;;;1.9;67
49583;BME280;36329;48.816;44.624;2023-02-01T15:08:45;100875;;;1.6;67.4
49583;BME280;36329;48.816;44.624;2023-02-01T15:12:08;100872;;;1.7;66.8
49583;BME280;36329;48.816;44.624;2023-02-01T15:15:24;100871;;;1.8;67.3
49583;BME280;36329;48.816;44.624;2023-02-01T15:18:27;100874;;;1.7;67.3
49583;BME280;36329;48.816;44.624;2023-02-01T15:21:44;100876;;;1.7;67.2
49583;BME280;36329;48.816;44.624;2023-02-01T15:24:53;100876;;;1.6;66.5
49583;BME280;36329;48.816;44.624;2023-02-01T15:28:03;100871;;;1.3;68.2
49583;BME280;36329;48.816;44.624;2023-02-01T15:31:38;100874;;;1.4;67.9
49583;BME280;36329;48.816;44.624;2023-02-01T15:34:49;100870;;;1.3;68.3
49583;BME280;36329;48.816;44.624;2023-02-01T15:41:33;100861;;;1.6;66.7
49583;BME280;36329;48.816;44.624;2023-02-01T15:44:43;100852;;;1.4;67.1
49583;BME280;36329;48.816;44.624;2023-02-01T15:48:14;100850;;;1.3;67.2
49583;BME280;36329;48.816;44.624;2023-02-01T15:51:32;100843;;;1.4;67.1
49583;BME280;36329;48.816;44.624;2023-02-01T15:54:56;100848;;;1.6;65.6
49583;BME280;36329;48.816;44.624;2023-02-01T15:58:17;100852;;;1.7;64.8
49583;BME280;36329;48.816;44.624;2023-02-01T16:01:22;100853;;;1.2;66.1
49583;BME280;36329;48.816;44.624;2023-02-01T16:04:29;100861;;;1.4;65.1
49583;BME280;36329;48.816;44.624;2023-02-01T16:07:38;100867;;;1.1;64.9
49583;BME280;36329;48.816;44.624;2023-02-01T16:10:54;100880;;;0.9;64.1
49583;BME280;36329;48.816;44.624;2023-02-01T16:14:16;100878;;;1.4;64.3
49583;BME280;36329;48.816;44.624;2023-02-01T16:17:29;100883;;;0.9;63.1
49583;BME280;36329;48.816;44.624;2023-02-01T16:20:54;100884;;;1;63.4
49583;BME280;36329;48.816;44.624;2023-02-01T16:24:09;100887;;;0.7;63.5
49583;BME280;36329;48.816;44.624;2023-02-01T16:27:19;100891;;;0.4;64.4
49583;BME280;36329;48.816;44.624;2023-02-01T16:30:27;100897;;;0.4;64.6
49583;BME280;36329;48.816;44.624;2023-02-01T16:33:51;100884;;;0.9;64.7
49583;BME280;36329;48.816;44.624;2023-02-01T16:36:54;100877;;;1.2;63
49583;BME280;36329;48.816;44.624;2023-02-01T16:40:13;100877;;;1.4;62.4
49583;BME280;36329;48.816;44.624;2023-02-01T16:43:22;100873;;;1.3;62.1
49583;BME280;36329;48.816;44.624;2023-02-01T16:46:28;100876;;;1.2;62.4
49583;BME280;36329;48.816;44.624;2023-02-01T16:49:41;100873;;;1.2;62.4
49583;BME280;36329;48.816;44.624;2023-02-01T16:52:50;100879;;;1.1;62.5
49583;BME280;36329;48.816;44.624;2023-02-01T16:56:11;100889;;;1.3;62.1
49583;BME280;36329;48.816;44.624;2023-02-01T16:59:22;100892;;;1.3;62.1
49583;BME280;36329;48.816;44.624;2023-02-01T17:02:38;100894;;;1.2;63
49583;BME280;36329;48.816;44.624;2023-02-01T17:05:47;100903;;;0.6;64.4
49583;BME280;36329;48.816;44.624;2023-02-01T17:09:05;100902;;;0.8;64.8
49583;BME280;36329;48.816;44.624;2023-02-01T17:12:29;100914;;;0.7;64.6
49583;BME280;36329;48.816;44.624;2023-02-01T17:15:48;100910;;;0.6;64.7
49583;BME280;36329;48.816;44.624;2023-02-01T17:19:08;100915;;;0.4;65
49583;BME280;36329;48.816;44.624;2023-02-01T17:22:27;100904;;;0.7;65.2
49583;BME280;36329;48.816;44.624;2023-02-01T17:25:44;100882;;;1;63.9
49583;BME280;36329;48.816;44.624;2023-02-01T17:29:03;100898;;;0.4;64.9
49583;BME280;36329;48.816;44.624;2023-02-01T17:32:09;100895;;;0.6;64.3
49583;BME280;36329;48.816;44.624;2023-02-01T17:35:36;100901;;;0.5;65.1
49583;BME280;36329;48.816;44.624;2023-02-01T17:38:41;100909;;;0.2;66
49583;BME280;36329;48.816;44.624;2023-02-01T17:41:43;100900;;;0.1;65.6
49583;BME280;36329;48.816;44.624;2023-02-01T17:48:26;100903;;;0.3;65.4
49583;BME280;36329;48.816;44.624;2023-02-01T17:51:46;100900;;;-0.2;66.3
49583;BME280;36329;48.816;44.624;2023-02-01T17:54:50;100898;;;-0.3;66.8
49583;BME280;36329;48.816;44.624;2023-02-01T17:57:58;100905;;;-0.3;67
49583;BME280;36329;48.816;44.624;2023-02-01T18:01:13;100909;;;0.1;65.4
49583;BME280;36329;48.816;44.624;2023-02-01T18:07:41;100897;;;0.2;64.9
49583;BME280;36329;48.816;44.624;2023-02-01T18:10:51;100906;;;-0.3;65.7
49583;BME280;36329;48.816;44.624;2023-02-01T18:14:05;100897;;;-0.4;66.3